createdAt,value
2022-10-07T00:00:23.565Z,55.20
2022-10-07T00:02:52.402Z,55.30
2022-10-07T00:05:21.232Z,55.30
2022-10-07T00:07:50.133Z,55.40
2022-10-07T00:10:20.291Z,55.30
2022-10-07T00:12:49.193Z,55.30
2022-10-07T00:15:19.996Z,55.30
2022-10-07T00:17:48.846Z,55.20
2022-10-07T00:20:18.234Z,55.30
2022-10-07T00:22:47.111Z,55.30
2022-10-07T00:25:15.993Z,55.30
2022-10-07T00:27:46.487Z,55.30
2022-10-07T00:30:16.741Z,55.30
2022-10-07T00:32:45.756Z,55.40
2022-10-07T00:35:14.654Z,55.40
2022-10-07T00:37:44.179Z,55.40
2022-10-07T00:40:14.399Z,55.40
2022-10-07T00:42:43.161Z,55.40
2022-10-07T00:45:19.445Z,55.50
2022-10-07T00:47:51.749Z,55.50
2022-10-07T00:50:26.277Z,55.50
2022-10-07T00:52:59.194Z,55.50
2022-10-07T00:55:31.293Z,55.50
2022-10-07T00:58:08.019Z,55.40
2022-10-07T01:00:38.960Z,55.40
2022-10-07T01:03:08.008Z,55.40
2022-10-07T01:05:36.612Z,55.40
2022-10-07T01:08:05.358Z,55.40
2022-10-07T01:10:50.974Z,55.40
2022-10-07T01:13:30.205Z,56.00
2022-10-07T01:16:07.441Z,55.30
2022-10-07T01:18:45.982Z,55.30
2022-10-07T01:21:31.571Z,55.30
2022-10-07T01:24:16.824Z,55.30
2022-10-07T01:27:03.115Z,55.30
2022-10-07T01:29:38.406Z,55.40
2022-10-07T01:32:14.382Z,55.40
2022-10-07T01:34:45.645Z,55.40
2022-10-07T01:37:17.740Z,55.50
2022-10-07T01:39:51.684Z,55.50
2022-10-07T01:42:22.245Z,55.60
2022-10-07T01:44:56.707Z,55.60
2022-10-07T01:47:26.982Z,55.60
2022-10-07T01:49:55.702Z,55.60
2022-10-07T01:52:44.723Z,55.60
2022-10-07T01:55:38.327Z,55.60
2022-10-07T01:58:21.914Z,55.60
2022-10-07T02:00:57.767Z,55.60
2022-10-07T02:03:43.999Z,55.50
2022-10-07T02:06:23.420Z,55.50
2022-10-07T02:08:55.270Z,55.50
2022-10-07T02:11:27.671Z,55.50
2022-10-07T02:14:13.061Z,55.40
2022-10-07T02:16:45.711Z,55.30
2022-10-07T02:19:21.280Z,55.30
2022-10-07T02:21:53.684Z,55.40
2022-10-07T02:24:28.528Z,55.40
2022-10-07T02:27:01.011Z,55.40
2022-10-07T02:29:35.512Z,55.50
2022-10-07T02:32:09.084Z,55.50
2022-10-07T02:34:38.758Z,55.50
2022-10-07T02:37:15.759Z,55.50
2022-10-07T02:39:46.161Z,55.40
2022-10-07T02:42:25.616Z,55.40
2022-10-07T02:45:02.307Z,55.50
2022-10-07T02:47:35.370Z,55.40
2022-10-07T02:50:10.999Z,55.30
2022-10-07T02:52:41.447Z,55.40
2022-10-07T02:55:17.099Z,55.50
2022-10-07T02:57:48.416Z,55.50
2022-10-07T03:00:21.215Z,55.60
2022-10-07T03:02:57.137Z,55.60
2022-10-07T03:05:34.414Z,55.60
2022-10-07T03:08:07.960Z,55.60
2022-10-07T03:10:37.862Z,55.60
2022-10-07T03:13:08.399Z,55.60
2022-10-07T03:15:42.808Z,55.60
2022-10-07T03:18:28.576Z,55.50
2022-10-07T03:21:06.647Z,55.50
2022-10-07T03:23:36.224Z,55.60
2022-10-07T03:26:05.013Z,55.60
2022-10-07T03:28:37.684Z,55.70
2022-10-07T03:31:11.920Z,55.80
2022-10-07T03:33:45.708Z,55.80
2022-10-07T03:36:14.601Z,55.80
2022-10-07T03:38:46.341Z,55.70
2022-10-07T03:41:15.068Z,55.70
2022-10-07T03:43:44.242Z,55.90
2022-10-07T03:46:17.454Z,55.80
2022-10-07T03:48:46.193Z,55.80
2022-10-07T03:51:15.724Z,55.80
2022-10-07T03:53:44.504Z,55.80
2022-10-07T03:56:13.763Z,55.80
2022-10-07T03:58:44.895Z,55.80
2022-10-07T04:01:17.552Z,55.80
2022-10-07T04:03:50.432Z,55.90
2022-10-07T04:06:19.936Z,55.90
2022-10-07T04:08:53.436Z,55.90
2022-10-07T04:11:22.233Z,56.60
2022-10-07T04:13:53.590Z,56.00
2022-10-07T04:16:25.528Z,56.00
2022-10-07T04:18:57.006Z,56.00
2022-10-07T04:21:28.342Z,56.00
2022-10-07T04:23:56.935Z,56.00
2022-10-07T04:26:25.526Z,56.00
2022-10-07T04:28:54.212Z,56.10
2022-10-07T04:31:26.021Z,56.00
2022-10-07T04:34:00.201Z,56.00
2022-10-07T04:36:36.363Z,56.00
2022-10-07T04:39:09.128Z,56.10
2022-10-07T04:41:43.030Z,56.10
2022-10-07T04:44:24.275Z,56.10
2022-10-07T04:47:02.386Z,56.10
2022-10-07T04:49:33.249Z,56.10
2022-10-07T04:52:03.489Z,56.10
2022-10-07T04:54:39.375Z,56.10
2022-10-07T04:57:10.064Z,56.10
2022-10-07T04:59:42.671Z,56.10
2022-10-07T05:02:14.870Z,56.20
2022-10-07T05:04:45.069Z,56.20
2022-10-07T05:07:13.821Z,56.30
2022-10-07T05:09:42.954Z,56.20
2022-10-07T05:12:11.613Z,56.40
2022-10-07T05:14:41.764Z,56.60
2022-10-07T05:17:11.393Z,56.60
2022-10-07T05:19:41.675Z,56.60
2022-10-07T05:22:10.245Z,56.60
2022-10-07T05:24:38.961Z,56.60
2022-10-07T05:27:07.598Z,56.60
2022-10-07T05:29:36.985Z,56.50
2022-10-07T05:32:05.806Z,56.50
2022-10-07T05:34:35.428Z,56.50
2022-10-07T05:37:05.356Z,56.50
2022-10-07T05:39:33.909Z,56.60
2022-10-07T05:42:09.489Z,56.60
2022-10-07T05:44:43.937Z,56.50
2022-10-07T05:47:14.191Z,56.60
2022-10-07T05:49:43.302Z,56.60
2022-10-07T05:52:13.411Z,56.60
2022-10-07T05:54:43.503Z,56.60
2022-10-07T05:57:13.989Z,56.60
2022-10-07T05:59:44.144Z,56.60
2022-10-07T06:02:17.191Z,56.70
2022-10-07T06:04:48.841Z,56.70
2022-10-07T06:07:21.437Z,56.70
2022-10-07T06:10:10.515Z,56.80
2022-10-07T06:12:57.056Z,56.80
2022-10-07T06:15:25.815Z,56.70
2022-10-07T06:17:54.519Z,56.80
2022-10-07T06:20:23.800Z,56.90
2022-10-07T06:22:58.227Z,56.90
2022-10-07T06:25:28.056Z,57.00
2022-10-07T06:27:58.664Z,57.00
2022-10-07T06:30:29.453Z,57.10
2022-10-07T06:32:59.854Z,57.10
2022-10-07T06:35:29.159Z,57.10
2022-10-07T06:38:00.039Z,57.10
2022-10-07T06:40:28.700Z,57.20
2022-10-07T06:42:57.219Z,57.20
2022-10-07T06:45:38.212Z,57.30
2022-10-07T06:48:06.984Z,57.30
2022-10-07T06:50:35.993Z,57.40
2022-10-07T06:53:06.535Z,57.40
2022-10-07T06:55:37.632Z,57.40
2022-10-07T06:58:11.432Z,57.40
2022-10-07T07:00:41.700Z,57.40
2022-10-07T07:03:12.315Z,57.40
2022-10-07T07:05:45.320Z,57.50
2022-10-07T07:08:20.160Z,57.50
2022-10-07T07:10:49.207Z,57.50
2022-10-07T07:13:18.266Z,57.60
2022-10-07T07:15:56.571Z,57.70
2022-10-07T07:18:27.030Z,57.80
2022-10-07T07:20:55.620Z,57.70
2022-10-07T07:23:28.395Z,57.70
2022-10-07T07:25:57.268Z,57.80
2022-10-07T07:28:25.835Z,57.80
2022-10-07T07:30:54.546Z,57.90
2022-10-07T07:33:23.196Z,58.00
2022-10-07T07:35:51.827Z,58.00
2022-10-07T07:38:24.760Z,58.60
2022-10-07T07:40:56.292Z,58.10
2022-10-07T07:43:24.952Z,58.20
2022-10-07T07:45:55.415Z,58.30
2022-10-07T07:48:24.246Z,58.40
2022-10-07T07:50:52.932Z,58.40
2022-10-07T07:53:22.950Z,58.40
2022-10-07T07:55:57.831Z,58.50
2022-10-07T07:58:28.004Z,58.70
2022-10-07T08:01:02.137Z,58.70
2022-10-07T08:03:31.636Z,59.00
2022-10-07T08:06:03.053Z,58.90
2022-10-07T08:08:32.808Z,59.10
2022-10-07T08:11:10.173Z,59.10
2022-10-07T08:13:39.701Z,59.30
2022-10-07T08:16:09.247Z,59.20
2022-10-07T08:18:39.103Z,59.30
2022-10-07T08:21:08.988Z,59.30
2022-10-07T08:23:38.689Z,59.40
2022-10-07T08:26:10.061Z,59.50
2022-10-07T08:28:40.260Z,60.30
2022-10-07T08:31:14.137Z,59.80
2022-10-07T08:33:45.585Z,60.00
2022-10-07T08:36:16.948Z,60.20
2022-10-07T08:38:50.057Z,60.40
2022-10-07T08:41:36.290Z,60.50
2022-10-07T08:44:17.836Z,60.70
2022-10-07T08:46:56.764Z,60.80
2022-10-07T08:49:36.675Z,60.80
2022-10-07T08:52:25.300Z,60.80
2022-10-07T08:54:54.445Z,60.80
2022-10-07T08:57:52.905Z,60.70
2022-10-07T09:00:24.928Z,61.40
2022-10-07T09:03:11.617Z,61.00
2022-10-07T09:05:45.935Z,61.50
2022-10-07T09:08:21.218Z,61.20
2022-10-07T09:10:53.747Z,61.30
2022-10-07T09:13:30.124Z,61.40
2022-10-07T09:16:07.999Z,61.80
2022-10-07T09:18:40.313Z,61.60
2022-10-07T09:21:16.848Z,61.70
2022-10-07T09:23:47.134Z,61.80
2022-10-07T09:26:17.481Z,61.60
2022-10-07T09:28:47.530Z,61.50
2022-10-07T09:31:17.306Z,61.40
2022-10-07T09:33:49.483Z,61.40
2022-10-07T09:36:19.032Z,61.40
2022-10-07T09:38:50.336Z,61.40
2022-10-07T09:41:22.757Z,61.50
2022-10-07T09:44:04.019Z,61.50
2022-10-07T09:46:56.562Z,61.70
2022-10-07T09:49:42.482Z,61.40
2022-10-07T09:52:19.759Z,61.80
2022-10-07T09:54:51.814Z,61.80
2022-10-07T09:57:31.193Z,61.30
2022-10-07T10:00:26.144Z,61.60
2022-10-07T10:03:05.208Z,62.00
2022-10-07T10:05:37.112Z,61.30
2022-10-07T10:08:09.141Z,61.40
2022-10-07T10:10:38.452Z,61.40
2022-10-07T10:13:11.991Z,61.40
2022-10-07T10:15:44.371Z,61.40
2022-10-07T10:18:32.108Z,61.30
2022-10-07T10:21:29.925Z,61.20
2022-10-07T10:24:00.204Z,61.10
2022-10-07T10:27:01.635Z,60.60
2022-10-07T10:29:48.578Z,60.70
2022-10-07T10:32:59.748Z,60.10
2022-10-07T10:35:32.173Z,59.90
2022-10-07T10:38:25.644Z,59.30
2022-10-07T10:41:05.079Z,58.60
2022-10-07T10:43:55.789Z,58.10
2022-10-07T10:46:39.747Z,57.80
2022-10-07T10:49:25.645Z,56.90
2022-10-07T10:52:27.122Z,56.30
2022-10-07T10:55:36.949Z,56.50
2022-10-07T10:58:23.605Z,55.90
2022-10-07T11:01:03.619Z,55.60
2022-10-07T11:04:06.250Z,55.60
2022-10-07T11:06:41.728Z,55.40
2022-10-07T11:09:18.233Z,55.20
2022-10-07T11:11:47.118Z,54.80
2022-10-07T11:14:21.139Z,55.10
2022-10-07T11:16:55.390Z,55.00
2022-10-07T11:19:30.123Z,54.80
2022-10-07T11:22:01.880Z,54.40
2022-10-07T11:24:37.751Z,54.40
2022-10-07T11:27:15.838Z,54.20
2022-10-07T11:29:49.428Z,53.80
2022-10-07T11:32:24.431Z,53.10
2022-10-07T11:34:57.629Z,53.20
2022-10-07T11:37:36.755Z,53.20
2022-10-07T11:40:07.003Z,53.00
2022-10-07T11:42:43.141Z,52.90
2022-10-07T11:45:17.908Z,52.50
2022-10-07T11:47:51.964Z,52.40
2022-10-07T11:50:24.598Z,52.30
2022-10-07T11:53:02.551Z,52.20
2022-10-07T11:55:36.010Z,52.10
2022-10-07T11:58:05.812Z,52.20
2022-10-07T12:00:37.065Z,52.00
2022-10-07T12:03:47.803Z,51.80
2022-10-07T12:06:16.405Z,51.30
2022-10-07T12:08:46.602Z,52.10
2022-10-07T12:11:47.897Z,51.40
2022-10-07T12:14:44.031Z,50.90
2022-10-07T12:17:23.012Z,50.20
2022-10-07T12:20:45.865Z,50.80
2022-10-07T12:23:42.007Z,50.40
2022-10-07T12:26:52.556Z,50.10
2022-10-07T12:29:35.615Z,49.90
2022-10-07T12:32:05.233Z,50.10
2022-10-07T12:34:43.559Z,50.80
2022-10-07T12:37:50.226Z,50.40
2022-10-07T12:40:26.822Z,50.10
2022-10-07T12:43:10.403Z,50.70
2022-10-07T12:45:43.555Z,50.60
2022-10-07T12:48:20.403Z,50.70
2022-10-07T12:50:52.287Z,50.60
2022-10-07T12:53:26.228Z,50.70
2022-10-07T12:55:57.587Z,50.70
2022-10-07T12:59:23.543Z,50.40
2022-10-07T13:02:28.173Z,50.00
2022-10-07T13:05:40.663Z,50.00
2022-10-07T13:09:02.803Z,50.10
2022-10-07T13:12:12.545Z,49.70
2022-10-07T13:14:54.892Z,49.70
2022-10-07T13:17:37.248Z,49.60
2022-10-07T13:20:29.411Z,49.70
2022-10-07T13:22:58.155Z,49.70
2022-10-07T13:25:26.713Z,50.10
2022-10-07T13:27:59.256Z,50.10
2022-10-07T13:30:42.004Z,50.00
2022-10-07T13:33:28.545Z,49.90
2022-10-07T13:36:16.930Z,50.00
2022-10-07T13:38:47.918Z,49.90
2022-10-07T13:41:28.977Z,50.30
2022-10-07T13:44:01.493Z,50.00
2022-10-07T13:46:34.886Z,50.30
2022-10-07T13:49:04.872Z,50.40
2022-10-07T13:51:36.592Z,50.50
2022-10-07T13:54:08.011Z,50.60
2022-10-07T13:56:41.444Z,50.60
2022-10-07T13:59:18.655Z,50.60
2022-10-07T14:01:52.358Z,50.60
2022-10-07T14:04:27.191Z,50.50
2022-10-07T14:07:00.415Z,50.40
2022-10-07T14:09:47.617Z,50.50
2022-10-07T14:12:21.413Z,50.50
2022-10-07T14:14:53.347Z,50.60
2022-10-07T14:17:41.073Z,50.60
2022-10-07T14:20:23.190Z,50.10
2022-10-07T14:22:55.365Z,50.00
2022-10-07T14:25:28.116Z,50.30
2022-10-07T14:28:15.059Z,50.40
2022-10-07T14:31:10.393Z,50.30
2022-10-07T14:34:06.027Z,50.60
2022-10-07T14:36:36.110Z,50.40
2022-10-07T14:39:24.384Z,50.60
2022-10-07T14:41:53.058Z,50.40
2022-10-07T14:44:21.786Z,50.70
2022-10-07T14:46:50.287Z,50.70
2022-10-07T14:49:20.233Z,50.70
2022-10-07T14:51:50.333Z,50.70
2022-10-07T14:54:18.901Z,51.10
2022-10-07T14:56:47.424Z,50.80
2022-10-07T14:59:16.321Z,50.80
2022-10-07T15:01:44.841Z,51.40
2022-10-07T15:04:13.479Z,50.90
2022-10-07T15:06:47.464Z,50.80
2022-10-07T15:09:19.511Z,50.80
2022-10-07T15:11:48.147Z,50.80
2022-10-07T15:14:16.701Z,50.80
2022-10-07T15:16:45.238Z,50.90
2022-10-07T15:19:15.272Z,51.00
2022-10-07T15:21:45.144Z,51.00
2022-10-07T15:24:14.028Z,51.10
2022-10-07T15:26:42.652Z,51.20
2022-10-07T15:29:13.330Z,51.20
2022-10-07T15:31:43.001Z,51.20
2022-10-07T15:34:11.715Z,51.20
2022-10-07T15:36:40.199Z,51.30
2022-10-07T15:39:11.948Z,51.40
2022-10-07T15:41:42.638Z,51.50
2022-10-07T15:44:17.051Z,51.50
2022-10-07T15:46:46.117Z,51.50
2022-10-07T15:49:14.884Z,51.60
2022-10-07T15:51:43.744Z,51.60
2022-10-07T15:54:13.870Z,51.70
2022-10-07T15:56:42.748Z,51.70
2022-10-07T15:59:11.338Z,51.80
2022-10-07T16:01:39.918Z,51.80
2022-10-07T16:04:14.308Z,51.90
2022-10-07T16:06:49.569Z,52.00
2022-10-07T16:09:19.717Z,52.00
2022-10-07T16:11:48.732Z,52.00
2022-10-07T16:14:17.752Z,52.10
2022-10-07T16:16:46.320Z,52.20
2022-10-07T16:19:14.986Z,52.20
2022-10-07T16:21:44.568Z,52.20
2022-10-07T16:24:18.484Z,52.30
2022-10-07T16:26:50.630Z,52.40
2022-10-07T16:29:38.737Z,52.30
2022-10-07T16:32:10.806Z,52.40
2022-10-07T16:34:43.204Z,52.40
2022-10-07T16:37:12.964Z,52.40
2022-10-07T16:39:43.068Z,52.40
2022-10-07T16:42:11.674Z,52.50
2022-10-07T16:44:40.166Z,52.50
2022-10-07T16:47:08.741Z,52.60
2022-10-07T16:49:37.352Z,52.60
2022-10-07T16:52:06.511Z,52.60
2022-10-07T16:54:35.618Z,52.60
2022-10-07T16:57:05.637Z,52.70
2022-10-07T16:59:34.470Z,52.60
2022-10-07T17:02:05.099Z,52.60
2022-10-07T17:04:33.764Z,52.60
2022-10-07T17:07:02.835Z,52.70
2022-10-07T17:09:31.391Z,52.70
2022-10-07T17:11:59.913Z,52.70
2022-10-07T17:14:31.639Z,52.70
2022-10-07T17:17:00.742Z,52.80
2022-10-07T17:19:30.019Z,52.90
2022-10-07T17:22:00.972Z,52.90
2022-10-07T17:24:30.041Z,52.90
2022-10-07T17:26:58.588Z,53.00
2022-10-07T17:29:27.134Z,53.00
2022-10-07T17:31:57.193Z,53.10
2022-10-07T17:34:25.768Z,53.20
2022-10-07T17:36:54.572Z,53.20
2022-10-07T17:39:23.297Z,53.20
2022-10-07T17:41:51.832Z,53.30
2022-10-07T17:44:21.501Z,53.30
2022-10-07T17:46:50.461Z,53.30
2022-10-07T17:49:20.735Z,54.00
2022-10-07T17:51:49.300Z,53.40
2022-10-07T17:54:18.104Z,53.40
2022-10-07T17:56:47.863Z,53.50
2022-10-07T17:59:17.100Z,53.50
2022-10-07T18:01:45.933Z,53.60
2022-10-07T18:04:22.448Z,53.60
2022-10-07T18:06:53.904Z,53.60
2022-10-07T18:09:24.265Z,53.70
2022-10-07T18:12:10.402Z,53.70
2022-10-07T18:14:56.288Z,53.70
2022-10-07T18:17:25.385Z,53.70
2022-10-07T18:19:54.123Z,53.70
2022-10-07T18:22:24.385Z,53.70
2022-10-07T18:24:57.101Z,53.80
2022-10-07T18:27:27.078Z,53.80
2022-10-07T18:29:56.473Z,53.80
2022-10-07T18:32:25.883Z,53.90
2022-10-07T18:34:54.393Z,54.00
2022-10-07T18:37:24.626Z,54.00
2022-10-07T18:39:53.210Z,54.00
2022-10-07T18:42:21.825Z,54.00
2022-10-07T18:44:52.319Z,54.10
2022-10-07T18:47:21.405Z,54.10
2022-10-07T18:49:51.751Z,54.80
2022-10-07T18:52:20.415Z,54.20
2022-10-07T18:54:50.259Z,54.20
2022-10-07T18:57:19.746Z,54.30
2022-10-07T18:59:48.327Z,54.30
2022-10-07T19:02:16.908Z,54.30
2022-10-07T19:04:45.492Z,54.30
2022-10-07T19:07:14.028Z,54.40
2022-10-07T19:09:42.515Z,54.40
2022-10-07T19:12:26.345Z,54.40
2022-10-07T19:14:54.834Z,54.50
2022-10-07T19:17:24.074Z,54.50
2022-10-07T19:19:52.662Z,54.50
2022-10-07T19:22:21.238Z,54.50
2022-10-07T19:25:07.067Z,54.50
2022-10-07T19:27:37.016Z,54.60
2022-10-07T19:30:06.851Z,54.60
2022-10-07T19:32:35.394Z,54.70
2022-10-07T19:35:03.923Z,54.60
2022-10-07T19:37:32.526Z,54.70
2022-10-07T19:40:01.291Z,54.80
2022-10-07T19:42:29.854Z,54.80
2022-10-07T19:45:21.897Z,55.40
2022-10-07T19:47:50.455Z,54.90
2022-10-07T19:50:19.154Z,54.90
2022-10-07T19:52:47.880Z,55.00
2022-10-07T19:55:16.607Z,55.00
2022-10-07T19:57:45.452Z,55.00
2022-10-07T20:00:14.965Z,55.20
2022-10-07T20:02:44.907Z,55.30
2022-10-07T20:05:13.574Z,55.30
2022-10-07T20:07:42.132Z,55.30
2022-10-07T20:10:10.627Z,55.30
2022-10-07T20:12:40.570Z,55.30
2022-10-07T20:15:10.283Z,55.40
2022-10-07T20:17:39.480Z,55.40
2022-10-07T20:20:11.148Z,55.40
2022-10-07T20:22:39.963Z,55.60
2022-10-07T20:25:10.200Z,55.50
2022-10-07T20:27:39.199Z,55.60
2022-10-07T20:30:17.603Z,55.60
2022-10-07T20:32:46.820Z,55.70
2022-10-07T20:35:17.172Z,55.70
2022-10-07T20:37:45.675Z,55.80
2022-10-07T20:40:31.480Z,55.80
2022-10-07T20:43:00.953Z,55.80
2022-10-07T20:45:29.454Z,55.80
2022-10-07T20:47:59.659Z,55.80
2022-10-07T20:50:29.562Z,55.80
2022-10-07T20:52:58.058Z,55.90
2022-10-07T20:55:26.590Z,55.90
2022-10-07T20:57:55.177Z,55.90
2022-10-07T21:00:23.663Z,55.90
2022-10-07T21:02:52.259Z,55.90
2022-10-07T21:05:20.874Z,55.90
2022-10-07T21:07:54.477Z,56.00
2022-10-07T21:10:23.470Z,56.00
2022-10-07T21:12:51.984Z,56.00
2022-10-07T21:15:21.267Z,56.00
2022-10-07T21:17:49.856Z,56.00
2022-10-07T21:20:18.390Z,56.10
2022-10-07T21:22:48.802Z,56.10
2022-10-07T21:25:18.921Z,56.10
2022-10-07T21:27:47.418Z,56.10
2022-10-07T21:30:16.125Z,56.10
2022-10-07T21:32:45.056Z,56.10
2022-10-07T21:35:13.785Z,56.10
2022-10-07T21:37:42.504Z,56.10
2022-10-07T21:40:11.693Z,56.20
2022-10-07T21:42:41.571Z,56.10
2022-10-07T21:45:12.141Z,56.20
2022-10-07T21:47:40.729Z,56.20
2022-10-07T21:50:11.278Z,56.50
2022-10-07T21:52:39.820Z,56.30
2022-10-07T21:55:09.347Z,56.30
2022-10-07T21:57:38.220Z,56.30
2022-10-07T22:00:12.288Z,56.30
2022-10-07T22:02:40.961Z,56.30
2022-10-07T22:05:11.447Z,56.30
2022-10-07T22:07:57.105Z,56.30
2022-10-07T22:10:25.736Z,56.30
2022-10-07T22:12:54.289Z,56.40
2022-10-07T22:15:24.789Z,56.40
2022-10-07T22:17:53.420Z,56.40
2022-10-07T22:20:22.329Z,56.40
2022-10-07T22:22:51.042Z,56.40
2022-10-07T22:25:20.327Z,56.30
2022-10-07T22:27:49.651Z,56.30
2022-10-07T22:30:18.481Z,56.30
2022-10-07T22:32:48.941Z,56.30
2022-10-07T22:35:30.524Z,56.30
2022-10-07T22:37:59.373Z,56.30
2022-10-07T22:40:28.633Z,56.30
2022-10-07T22:42:57.228Z,56.30
2022-10-07T22:45:25.874Z,56.30
2022-10-07T22:47:55.770Z,56.30
2022-10-07T22:50:24.311Z,56.40
2022-10-07T22:52:53.488Z,56.40
2022-10-07T22:55:21.970Z,56.40
2022-10-07T22:57:51.632Z,56.50
2022-10-07T23:00:21.125Z,56.50
2022-10-07T23:02:50.071Z,56.50
2022-10-07T23:05:20.333Z,56.60
2022-10-07T23:07:48.940Z,56.60
2022-10-07T23:10:17.615Z,56.60
2022-10-07T23:12:46.766Z,56.60
2022-10-07T23:15:17.697Z,56.60
2022-10-07T23:17:46.227Z,56.60
2022-10-07T23:20:14.940Z,56.60
2022-10-07T23:22:47.050Z,56.60
2022-10-07T23:25:16.274Z,56.70
2022-10-07T23:27:44.776Z,56.70
2022-10-07T23:30:14.020Z,56.70
2022-10-07T23:32:46.857Z,56.80
2022-10-07T23:35:15.695Z,56.90
2022-10-07T23:37:45.911Z,56.80
2022-10-07T23:40:14.580Z,56.90
2022-10-07T23:42:43.075Z,56.90
2022-10-07T23:45:13.346Z,57.50
2022-10-07T23:47:42.361Z,57.00
2022-10-07T23:50:12.991Z,56.90
2022-10-07T23:52:41.568Z,56.90
2022-10-07T23:55:12.833Z,57.00
2022-10-07T23:57:41.640Z,56.90
